sensor_id;sensor_type;location;lat;lon;timestamp;P1;durP1;ratioP1;P2;durP2;ratioP2
68942;SDS011;60852;52.190;4.422;2024-02-26T00:00:31;5.82;;;5.82;;
68942;SDS011;60852;52.190;4.422;2024-02-26T00:02:57;5.69;;;5.69;;
68942;SDS011;60852;52.190;4.422;2024-02-26T00:05:23;5.97;;;5.97;;
68942;SDS011;60852;52.190;4.422;2024-02-26T00:07:48;6.15;;;6.15;;
68942;SDS011;60852;52.190;4.422;2024-02-26T00:10:14;5.96;;;5.96;;
68942;SDS011;60852;52.190;4.422;2024-02-26T00:12:40;6.35;;;6.35;;
68942;SDS011;60852;52.190;4.422;2024-02-26T00:15:06;6.03;;;6.03;;
68942;SDS011;60852;52.190;4.422;2024-02-26T00:17:34;6.35;;;6.35;;
68942;SDS011;60852;52.190;4.422;2024-02-26T00:19:59;6.39;;;6.39;;
68942;SDS011;60852;52.190;4.422;2024-02-26T00:22:26;7.04;;;7.04;;
68942;SDS011;60852;52.190;4.422;2024-02-26T00:24:51;6.81;;;6.81;;
68942;SDS011;60852;52.190;4.422;2024-02-26T00:27:17;6.81;;;6.81;;
68942;SDS011;60852;52.190;4.422;2024-02-26T00:29:43;7.35;;;7.35;;
68942;SDS011;60852;52.190;4.422;2024-02-26T00:32:08;7.89;;;7.89;;
68942;SDS011;60852;52.190;4.422;2024-02-26T00:34:34;8.29;;;8.29;;
68942;SDS011;60852;52.190;4.422;2024-02-26T00:36:59;8.75;;;8.75;;
68942;SDS011;60852;52.190;4.422;2024-02-26T00:39:24;9.61;;;9.61;;
68942;SDS011;60852;52.190;4.422;2024-02-26T00:41:50;10.28;;;10.27;;
68942;SDS011;60852;52.190;4.422;2024-02-26T00:44:16;10.83;;;10.83;;
68942;SDS011;60852;52.190;4.422;2024-02-26T00:46:42;11.03;;;11.03;;
68942;SDS011;60852;52.190;4.422;2024-02-26T00:49:08;11.26;;;11.21;;
68942;SDS011;60852;52.190;4.422;2024-02-26T00:51:33;11.61;;;11.61;;
68942;SDS011;60852;52.190;4.422;2024-02-26T00:53:59;11.32;;;11.32;;
68942;SDS011;60852;52.190;4.422;2024-02-26T00:56:24;11.70;;;11.70;;
68942;SDS011;60852;52.190;4.422;2024-02-26T00:58:50;11.85;;;11.85;;
68942;SDS011;60852;52.190;4.422;2024-02-26T01:01:16;11.80;;;11.80;;
68942;SDS011;60852;52.190;4.422;2024-02-26T01:03:42;12.08;;;12.08;;
68942;SDS011;60852;52.190;4.422;2024-02-26T01:06:07;11.90;;;11.85;;
68942;SDS011;60852;52.190;4.422;2024-02-26T01:08:33;11.63;;;11.63;;
68942;SDS011;60852;52.190;4.422;2024-02-26T01:11:00;12.16;;;12.16;;
68942;SDS011;60852;52.190;4.422;2024-02-26T01:13:26;11.52;;;11.52;;
68942;SDS011;60852;52.190;4.422;2024-02-26T01:15:51;11.32;;;11.26;;
68942;SDS011;60852;52.190;4.422;2024-02-26T01:18:17;11.17;;;11.10;;
68942;SDS011;60852;52.190;4.422;2024-02-26T01:20:43;10.99;;;10.99;;
68942;SDS011;60852;52.190;4.422;2024-02-26T01:23:08;10.86;;;10.76;;
68942;SDS011;60852;52.190;4.422;2024-02-26T01:25:34;11.68;;;11.63;;
68942;SDS011;60852;52.190;4.422;2024-02-26T01:27:59;10.85;;;10.84;;
68942;SDS011;60852;52.190;4.422;2024-02-26T01:30:25;11.43;;;11.43;;
68942;SDS011;60852;52.190;4.422;2024-02-26T01:32:50;11.73;;;11.73;;
68942;SDS011;60852;52.190;4.422;2024-02-26T01:35:15;11.96;;;11.96;;
68942;SDS011;60852;52.190;4.422;2024-02-26T01:37:41;11.66;;;11.66;;
68942;SDS011;60852;52.190;4.422;2024-02-26T01:40:07;11.65;;;11.65;;
68942;SDS011;60852;52.190;4.422;2024-02-26T01:42:34;12.39;;;12.39;;
68942;SDS011;60852;52.190;4.422;2024-02-26T01:45:03;12.40;;;12.40;;
68942;SDS011;60852;52.190;4.422;2024-02-26T01:47:30;13.45;;;13.35;;
68942;SDS011;60852;52.190;4.422;2024-02-26T01:49:56;13.03;;;13.03;;
68942;SDS011;60852;52.190;4.422;2024-02-26T01:52:22;13.58;;;13.46;;
68942;SDS011;60852;52.190;4.422;2024-02-26T01:54:48;14.68;;;14.20;;
68942;SDS011;60852;52.190;4.422;2024-02-26T01:57:15;13.83;;;13.73;;
68942;SDS011;60852;52.190;4.422;2024-02-26T01:59:41;14.16;;;14.16;;
68942;SDS011;60852;52.190;4.422;2024-02-26T02:02:07;13.94;;;13.94;;
68942;SDS011;60852;52.190;4.422;2024-02-26T02:04:36;13.37;;;13.37;;
68942;SDS011;60852;52.190;4.422;2024-02-26T02:07:02;13.05;;;13.05;;
68942;SDS011;60852;52.190;4.422;2024-02-26T02:09:29;12.75;;;12.75;;
68942;SDS011;60852;52.190;4.422;2024-02-26T02:11:55;12.18;;;12.18;;
68942;SDS011;60852;52.190;4.422;2024-02-26T02:14:21;12.13;;;12.13;;
68942;SDS011;60852;52.190;4.422;2024-02-26T02:16:47;11.81;;;11.81;;
68942;SDS011;60852;52.190;4.422;2024-02-26T02:19:13;11.76;;;11.76;;
68942;SDS011;60852;52.190;4.422;2024-02-26T02:21:38;10.98;;;10.98;;
68942;SDS011;60852;52.190;4.422;2024-02-26T02:24:04;10.43;;;10.43;;
68942;SDS011;60852;52.190;4.422;2024-02-26T02:26:30;10.34;;;10.33;;
68942;SDS011;60852;52.190;4.422;2024-02-26T02:28:55;9.98;;;9.98;;
68942;SDS011;60852;52.190;4.422;2024-02-26T02:31:22;10.17;;;10.17;;
68942;SDS011;60852;52.190;4.422;2024-02-26T02:33:48;10.59;;;10.51;;
68942;SDS011;60852;52.190;4.422;2024-02-26T02:36:14;10.63;;;10.52;;
68942;SDS011;60852;52.190;4.422;2024-02-26T02:38:48;10.61;;;10.61;;
68942;SDS011;60852;52.190;4.422;2024-02-26T02:41:18;10.43;;;10.43;;
68942;SDS011;60852;52.190;4.422;2024-02-26T02:43:44;11.11;;;11.10;;
68942;SDS011;60852;52.190;4.422;2024-02-26T02:46:09;11.59;;;11.55;;
68942;SDS011;60852;52.190;4.422;2024-02-26T02:48:38;11.62;;;11.48;;
68942;SDS011;60852;52.190;4.422;2024-02-26T02:51:04;11.00;;;10.97;;
68942;SDS011;60852;52.190;4.422;2024-02-26T02:53:30;12.55;;;12.27;;
68942;SDS011;60852;52.190;4.422;2024-02-26T02:55:55;12.44;;;12.24;;
68942;SDS011;60852;52.190;4.422;2024-02-26T02:58:21;13.11;;;12.68;;
68942;SDS011;60852;52.190;4.422;2024-02-26T03:00:46;12.98;;;12.71;;
68942;SDS011;60852;52.190;4.422;2024-02-26T03:03:12;13.94;;;13.44;;
68942;SDS011;60852;52.190;4.422;2024-02-26T03:05:37;13.38;;;13.16;;
68942;SDS011;60852;52.190;4.422;2024-02-26T03:08:03;14.40;;;13.91;;
68942;SDS011;60852;52.190;4.422;2024-02-26T03:10:28;15.52;;;14.58;;
68942;SDS011;60852;52.190;4.422;2024-02-26T03:12:54;15.00;;;14.80;;
68942;SDS011;60852;52.190;4.422;2024-02-26T03:15:19;16.54;;;15.87;;
68942;SDS011;60852;52.190;4.422;2024-02-26T03:17:45;16.87;;;16.16;;
68942;SDS011;60852;52.190;4.422;2024-02-26T03:20:10;17.41;;;16.70;;
68942;SDS011;60852;52.190;4.422;2024-02-26T03:22:38;17.34;;;16.54;;
68942;SDS011;60852;52.190;4.422;2024-02-26T03:25:05;17.04;;;16.50;;
68942;SDS011;60852;52.190;4.422;2024-02-26T03:27:31;17.61;;;16.76;;
68942;SDS011;60852;52.190;4.422;2024-02-26T03:29:56;18.12;;;17.09;;
68942;SDS011;60852;52.190;4.422;2024-02-26T03:32:22;18.85;;;17.88;;
68942;SDS011;60852;52.190;4.422;2024-02-26T03:34:47;18.57;;;17.52;;
68942;SDS011;60852;52.190;4.422;2024-02-26T03:37:13;18.73;;;17.83;;
68942;SDS011;60852;52.190;4.422;2024-02-26T03:39:38;18.99;;;18.00;;
68942;SDS011;60852;52.190;4.422;2024-02-26T03:42:04;19.59;;;18.52;;
68942;SDS011;60852;52.190;4.422;2024-02-26T03:44:29;19.16;;;18.23;;
68942;SDS011;60852;52.190;4.422;2024-02-26T03:46:55;19.31;;;18.31;;
68942;SDS011;60852;52.190;4.422;2024-02-26T03:49:21;19.11;;;18.24;;
68942;SDS011;60852;52.190;4.422;2024-02-26T03:51:47;19.60;;;18.67;;
68942;SDS011;60852;52.190;4.422;2024-02-26T03:54:13;19.81;;;18.83;;
68942;SDS011;60852;52.190;4.422;2024-02-26T03:56:39;19.82;;;18.85;;
68942;SDS011;60852;52.190;4.422;2024-02-26T03:59:04;19.73;;;18.61;;
68942;SDS011;60852;52.190;4.422;2024-02-26T04:01:30;19.12;;;18.24;;
68942;SDS011;60852;52.190;4.422;2024-02-26T04:03:55;20.45;;;19.49;;
68942;SDS011;60852;52.190;4.422;2024-02-26T04:06:21;20.54;;;19.51;;
68942;SDS011;60852;52.190;4.422;2024-02-26T04:08:47;19.82;;;18.86;;
68942;SDS011;60852;52.190;4.422;2024-02-26T04:11:13;18.99;;;18.11;;
68942;SDS011;60852;52.190;4.422;2024-02-26T04:13:43;20.32;;;19.22;;
68942;SDS011;60852;52.190;4.422;2024-02-26T04:16:14;20.99;;;19.67;;
68942;SDS011;60852;52.190;4.422;2024-02-26T04:18:41;20.10;;;18.99;;
68942;SDS011;60852;52.190;4.422;2024-02-26T04:21:07;20.94;;;19.71;;
68942;SDS011;60852;52.190;4.422;2024-02-26T04:23:32;21.46;;;20.24;;
68942;SDS011;60852;52.190;4.422;2024-02-26T04:25:58;21.62;;;20.47;;
68942;SDS011;60852;52.190;4.422;2024-02-26T04:28:23;21.15;;;20.11;;
68942;SDS011;60852;52.190;4.422;2024-02-26T04:30:51;21.44;;;20.34;;
68942;SDS011;60852;52.190;4.422;2024-02-26T04:33:17;20.39;;;19.23;;
68942;SDS011;60852;52.190;4.422;2024-02-26T04:35:42;19.55;;;18.68;;
68942;SDS011;60852;52.190;4.422;2024-02-26T04:38:08;20.22;;;18.95;;
68942;SDS011;60852;52.190;4.422;2024-02-26T04:40:33;19.64;;;18.61;;
68942;SDS011;60852;52.190;4.422;2024-02-26T04:42:59;19.73;;;18.81;;
68942;SDS011;60852;52.190;4.422;2024-02-26T04:45:24;20.42;;;19.24;;
68942;SDS011;60852;52.190;4.422;2024-02-26T04:47:49;20.33;;;19.18;;
68942;SDS011;60852;52.190;4.422;2024-02-26T04:50:15;21.60;;;20.17;;
68942;SDS011;60852;52.190;4.422;2024-02-26T04:52:41;21.05;;;19.88;;
68942;SDS011;60852;52.190;4.422;2024-02-26T04:55:06;21.09;;;20.06;;
68942;SDS011;60852;52.190;4.422;2024-02-26T04:57:32;20.66;;;19.64;;
68942;SDS011;60852;52.190;4.422;2024-02-26T04:59:58;21.76;;;20.64;;
68942;SDS011;60852;52.190;4.422;2024-02-26T05:02:23;21.29;;;20.24;;
68942;SDS011;60852;52.190;4.422;2024-02-26T05:04:49;22.79;;;21.41;;
68942;SDS011;60852;52.190;4.422;2024-02-26T05:07:15;22.49;;;21.06;;
68942;SDS011;60852;52.190;4.422;2024-02-26T05:09:42;22.44;;;21.24;;
68942;SDS011;60852;52.190;4.422;2024-02-26T05:12:09;22.04;;;21.10;;
68942;SDS011;60852;52.190;4.422;2024-02-26T05:14:35;22.49;;;21.42;;
68942;SDS011;60852;52.190;4.422;2024-02-26T05:17:00;23.97;;;22.46;;
68942;SDS011;60852;52.190;4.422;2024-02-26T05:19:26;23.15;;;22.02;;
68942;SDS011;60852;52.190;4.422;2024-02-26T05:21:52;25.25;;;24.14;;
68942;SDS011;60852;52.190;4.422;2024-02-26T05:24:17;24.50;;;23.22;;
68942;SDS011;60852;52.190;4.422;2024-02-26T05:26:43;24.86;;;23.31;;
68942;SDS011;60852;52.190;4.422;2024-02-26T05:29:10;25.29;;;24.00;;
68942;SDS011;60852;52.190;4.422;2024-02-26T05:31:35;25.69;;;24.10;;
68942;SDS011;60852;52.190;4.422;2024-02-26T05:34:01;25.00;;;23.68;;
68942;SDS011;60852;52.190;4.422;2024-02-26T05:36:26;25.79;;;24.29;;
68942;SDS011;60852;52.190;4.422;2024-02-26T05:38:53;25.97;;;24.56;;
68942;SDS011;60852;52.190;4.422;2024-02-26T05:41:19;25.86;;;24.48;;
68942;SDS011;60852;52.190;4.422;2024-02-26T05:43:48;25.83;;;24.60;;
68942;SDS011;60852;52.190;4.422;2024-02-26T05:46:18;26.77;;;25.34;;
68942;SDS011;60852;52.190;4.422;2024-02-26T05:48:45;27.48;;;25.74;;
68942;SDS011;60852;52.190;4.422;2024-02-26T05:51:12;26.98;;;25.80;;
68942;SDS011;60852;52.190;4.422;2024-02-26T05:53:37;27.63;;;25.90;;
68942;SDS011;60852;52.190;4.422;2024-02-26T05:56:03;26.87;;;25.58;;
68942;SDS011;60852;52.190;4.422;2024-02-26T05:58:29;28.74;;;27.01;;
68942;SDS011;60852;52.190;4.422;2024-02-26T06:00:54;27.85;;;26.66;;
68942;SDS011;60852;52.190;4.422;2024-02-26T06:03:20;28.63;;;27.04;;
68942;SDS011;60852;52.190;4.422;2024-02-26T06:05:46;28.17;;;26.75;;
68942;SDS011;60852;52.190;4.422;2024-02-26T06:08:11;27.97;;;26.69;;
68942;SDS011;60852;52.190;4.422;2024-02-26T06:10:37;29.14;;;27.62;;
68942;SDS011;60852;52.190;4.422;2024-02-26T06:13:04;28.61;;;27.08;;
68942;SDS011;60852;52.190;4.422;2024-02-26T06:15:29;27.85;;;26.34;;
68942;SDS011;60852;52.190;4.422;2024-02-26T06:17:55;27.55;;;26.29;;
68942;SDS011;60852;52.190;4.422;2024-02-26T06:20:20;27.71;;;26.22;;
68942;SDS011;60852;52.190;4.422;2024-02-26T06:22:46;27.51;;;25.99;;
68942;SDS011;60852;52.190;4.422;2024-02-26T06:25:11;27.38;;;26.06;;
68942;SDS011;60852;52.190;4.422;2024-02-26T06:27:37;26.26;;;25.09;;
68942;SDS011;60852;52.190;4.422;2024-02-26T06:30:02;25.58;;;24.32;;
68942;SDS011;60852;52.190;4.422;2024-02-26T06:32:28;25.54;;;24.24;;
68942;SDS011;60852;52.190;4.422;2024-02-26T06:34:54;25.77;;;24.39;;
68942;SDS011;60852;52.190;4.422;2024-02-26T06:37:21;26.31;;;24.76;;
68942;SDS011;60852;52.190;4.422;2024-02-26T06:39:46;26.33;;;24.86;;
68942;SDS011;60852;52.190;4.422;2024-02-26T06:42:12;26.42;;;25.18;;
68942;SDS011;60852;52.190;4.422;2024-02-26T06:44:37;26.07;;;24.75;;
68942;SDS011;60852;52.190;4.422;2024-02-26T06:47:03;24.47;;;23.42;;
68942;SDS011;60852;52.190;4.422;2024-02-26T06:49:29;23.77;;;22.84;;
68942;SDS011;60852;52.190;4.422;2024-02-26T06:51:54;24.32;;;23.11;;
68942;SDS011;60852;52.190;4.422;2024-02-26T06:54:20;23.48;;;22.21;;
68942;SDS011;60852;52.190;4.422;2024-02-26T06:56:46;23.17;;;22.06;;
68942;SDS011;60852;52.190;4.422;2024-02-26T06:59:11;22.34;;;21.38;;
68942;SDS011;60852;52.190;4.422;2024-02-26T07:01:37;22.33;;;21.13;;
68942;SDS011;60852;52.190;4.422;2024-02-26T07:04:05;22.57;;;21.38;;
68942;SDS011;60852;52.190;4.422;2024-02-26T07:06:30;21.50;;;20.60;;
68942;SDS011;60852;52.190;4.422;2024-02-26T07:08:56;20.59;;;19.78;;
68942;SDS011;60852;52.190;4.422;2024-02-26T07:11:21;20.70;;;19.84;;
68942;SDS011;60852;52.190;4.422;2024-02-26T07:13:47;20.23;;;19.25;;
68942;SDS011;60852;52.190;4.422;2024-02-26T07:16:12;20.03;;;19.13;;
68942;SDS011;60852;52.190;4.422;2024-02-26T07:18:41;19.95;;;18.98;;
68942;SDS011;60852;52.190;4.422;2024-02-26T07:21:06;18.83;;;17.85;;
68942;SDS011;60852;52.190;4.422;2024-02-26T07:23:32;18.53;;;17.45;;
68942;SDS011;60852;52.190;4.422;2024-02-26T07:25:58;17.46;;;16.76;;
68942;SDS011;60852;52.190;4.422;2024-02-26T07:28:24;16.56;;;15.79;;
68942;SDS011;60852;52.190;4.422;2024-02-26T07:30:50;16.66;;;15.96;;
68942;SDS011;60852;52.190;4.422;2024-02-26T07:33:15;14.34;;;14.24;;
68942;SDS011;60852;52.190;4.422;2024-02-26T07:35:41;14.76;;;14.14;;
68942;SDS011;60852;52.190;4.422;2024-02-26T07:38:06;14.54;;;14.07;;
68942;SDS011;60852;52.190;4.422;2024-02-26T07:40:32;13.85;;;13.60;;
68942;SDS011;60852;52.190;4.422;2024-02-26T07:42:58;13.09;;;12.96;;
68942;SDS011;60852;52.190;4.422;2024-02-26T07:45:23;13.53;;;13.25;;
68942;SDS011;60852;52.190;4.422;2024-02-26T07:47:49;13.36;;;13.12;;
68942;SDS011;60852;52.190;4.422;2024-02-26T07:50:16;13.27;;;12.67;;
68942;SDS011;60852;52.190;4.422;2024-02-26T07:52:41;12.83;;;12.38;;
68942;SDS011;60852;52.190;4.422;2024-02-26T07:55:07;12.37;;;12.21;;
68942;SDS011;60852;52.190;4.422;2024-02-26T07:57:33;12.45;;;11.95;;
68942;SDS011;60852;52.190;4.422;2024-02-26T07:59:59;11.90;;;11.47;;
68942;SDS011;60852;52.190;4.422;2024-02-26T08:02:24;11.17;;;11.14;;
68942;SDS011;60852;52.190;4.422;2024-02-26T08:04:50;10.62;;;10.59;;
68942;SDS011;60852;52.190;4.422;2024-02-26T08:07:15;11.28;;;11.00;;
68942;SDS011;60852;52.190;4.422;2024-02-26T08:09:41;11.05;;;11.01;;
68942;SDS011;60852;52.190;4.422;2024-02-26T08:12:07;11.61;;;11.24;;
68942;SDS011;60852;52.190;4.422;2024-02-26T08:14:32;11.10;;;10.87;;
68942;SDS011;60852;52.190;4.422;2024-02-26T08:16:58;10.97;;;10.73;;
68942;SDS011;60852;52.190;4.422;2024-02-26T08:19:24;11.34;;;11.09;;
68942;SDS011;60852;52.190;4.422;2024-02-26T08:21:49;10.90;;;10.59;;
68942;SDS011;60852;52.190;4.422;2024-02-26T08:24:15;10.91;;;10.50;;
68942;SDS011;60852;52.190;4.422;2024-02-26T08:26:40;11.01;;;10.55;;
68942;SDS011;60852;52.190;4.422;2024-02-26T08:29:05;10.71;;;10.28;;
68942;SDS011;60852;52.190;4.422;2024-02-26T08:31:31;10.75;;;10.35;;
68942;SDS011;60852;52.190;4.422;2024-02-26T08:33:56;10.27;;;9.99;;
68942;SDS011;60852;52.190;4.422;2024-02-26T08:36:23;9.69;;;9.41;;
68942;SDS011;60852;52.190;4.422;2024-02-26T08:38:48;10.16;;;9.79;;
68942;SDS011;60852;52.190;4.422;2024-02-26T08:41:14;10.61;;;10.05;;
68942;SDS011;60852;52.190;4.422;2024-02-26T08:43:40;9.29;;;8.96;;
68942;SDS011;60852;52.190;4.422;2024-02-26T08:46:09;9.63;;;9.27;;
68942;SDS011;60852;52.190;4.422;2024-02-26T08:48:35;9.10;;;8.80;;
68942;SDS011;60852;52.190;4.422;2024-02-26T08:51:04;9.38;;;8.97;;
68942;SDS011;60852;52.190;4.422;2024-02-26T08:53:30;9.46;;;9.10;;
68942;SDS011;60852;52.190;4.422;2024-02-26T08:55:56;9.51;;;9.06;;
68942;SDS011;60852;52.190;4.422;2024-02-26T08:58:21;9.52;;;9.21;;
68942;SDS011;60852;52.190;4.422;2024-02-26T09:00:47;9.07;;;8.67;;
68942;SDS011;60852;52.190;4.422;2024-02-26T09:03:12;9.45;;;9.09;;
68942;SDS011;60852;52.190;4.422;2024-02-26T09:05:38;9.20;;;8.81;;
68942;SDS011;60852;52.190;4.422;2024-02-26T09:08:03;8.89;;;8.57;;
68942;SDS011;60852;52.190;4.422;2024-02-26T09:10:29;8.99;;;8.68;;
68942;SDS011;60852;52.190;4.422;2024-02-26T09:12:54;9.17;;;8.90;;
68942;SDS011;60852;52.190;4.422;2024-02-26T09:15:20;8.62;;;8.45;;
68942;SDS011;60852;52.190;4.422;2024-02-26T09:17:45;8.32;;;8.21;;
68942;SDS011;60852;52.190;4.422;2024-02-26T09:20:11;9.17;;;8.78;;
68942;SDS011;60852;52.190;4.422;2024-02-26T09:22:38;9.48;;;9.15;;
68942;SDS011;60852;52.190;4.422;2024-02-26T09:25:04;8.97;;;8.72;;
68942;SDS011;60852;52.190;4.422;2024-02-26T09:27:31;8.81;;;8.68;;
68942;SDS011;60852;52.190;4.422;2024-02-26T09:29:57;8.73;;;8.65;;
68942;SDS011;60852;52.190;4.422;2024-02-26T09:32:22;9.01;;;8.72;;
68942;SDS011;60852;52.190;4.422;2024-02-26T09:34:50;8.98;;;8.59;;
68942;SDS011;60852;52.190;4.422;2024-02-26T09:37:15;9.06;;;8.66;;
68942;SDS011;60852;52.190;4.422;2024-02-26T09:39:41;8.58;;;8.43;;
68942;SDS011;60852;52.190;4.422;2024-02-26T09:42:06;8.36;;;8.24;;
68942;SDS011;60852;52.190;4.422;2024-02-26T09:44:36;8.48;;;8.42;;
68942;SDS011;60852;52.190;4.422;2024-02-26T09:47:04;8.76;;;8.53;;
68942;SDS011;60852;52.190;4.422;2024-02-26T09:49:36;8.52;;;8.23;;
68942;SDS011;60852;52.190;4.422;2024-02-26T09:52:03;8.68;;;8.57;;
68942;SDS011;60852;52.190;4.422;2024-02-26T09:54:30;8.12;;;8.10;;
68942;SDS011;60852;52.190;4.422;2024-02-26T09:56:59;8.52;;;8.39;;
68942;SDS011;60852;52.190;4.422;2024-02-26T09:59:29;9.31;;;8.96;;
68942;SDS011;60852;52.190;4.422;2024-02-26T10:02:11;8.53;;;8.52;;
68942;SDS011;60852;52.190;4.422;2024-02-26T10:04:41;8.21;;;8.14;;
68942;SDS011;60852;52.190;4.422;2024-02-26T10:07:11;8.34;;;8.23;;
68942;SDS011;60852;52.190;4.422;2024-02-26T10:09:38;8.31;;;8.27;;
68942;SDS011;60852;52.190;4.422;2024-02-26T10:12:05;7.98;;;7.97;;
68942;SDS011;60852;52.190;4.422;2024-02-26T10:14:34;8.22;;;8.01;;
68942;SDS011;60852;52.190;4.422;2024-02-26T10:16:59;8.31;;;7.97;;
68942;SDS011;60852;52.190;4.422;2024-02-26T10:19:28;8.64;;;8.37;;
68942;SDS011;60852;52.190;4.422;2024-02-26T10:21:58;8.55;;;8.41;;
68942;SDS011;60852;52.190;4.422;2024-02-26T10:24:25;8.21;;;7.94;;
68942;SDS011;60852;52.190;4.422;2024-02-26T10:26:52;7.89;;;7.68;;
68942;SDS011;60852;52.190;4.422;2024-02-26T10:29:19;8.66;;;8.53;;
68942;SDS011;60852;52.190;4.422;2024-02-26T10:31:45;7.96;;;7.93;;
68942;SDS011;60852;52.190;4.422;2024-02-26T10:34:11;8.17;;;8.01;;
68942;SDS011;60852;52.190;4.422;2024-02-26T10:36:36;8.75;;;8.63;;
68942;SDS011;60852;52.190;4.422;2024-02-26T10:39:03;8.26;;;8.21;;
68942;SDS011;60852;52.190;4.422;2024-02-26T10:41:30;7.79;;;7.67;;
68942;SDS011;60852;52.190;4.422;2024-02-26T10:43:57;7.94;;;7.79;;
68942;SDS011;60852;52.190;4.422;2024-02-26T10:46:23;7.47;;;7.24;;
68942;SDS011;60852;52.190;4.422;2024-02-26T10:48:50;8.03;;;7.80;;
68942;SDS011;60852;52.190;4.422;2024-02-26T10:51:18;8.29;;;8.01;;
68942;SDS011;60852;52.190;4.422;2024-02-26T10:53:50;7.85;;;7.64;;
68942;SDS011;60852;52.190;4.422;2024-02-26T10:56:21;7.92;;;7.63;;
68942;SDS011;60852;52.190;4.422;2024-02-26T10:58:52;7.97;;;7.65;;
68942;SDS011;60852;52.190;4.422;2024-02-26T11:01:18;8.11;;;7.81;;
68942;SDS011;60852;52.190;4.422;2024-02-26T11:03:45;7.93;;;7.73;;
68942;SDS011;60852;52.190;4.422;2024-02-26T11:06:11;7.80;;;7.56;;
68942;SDS011;60852;52.190;4.422;2024-02-26T11:08:37;8.03;;;7.76;;
68942;SDS011;60852;52.190;4.422;2024-02-26T11:11:03;7.66;;;7.38;;
68942;SDS011;60852;52.190;4.422;2024-02-26T11:13:30;7.26;;;7.11;;
68942;SDS011;60852;52.190;4.422;2024-02-26T11:15:56;7.22;;;7.04;;
68942;SDS011;60852;52.190;4.422;2024-02-26T11:18:23;7.38;;;7.19;;
68942;SDS011;60852;52.190;4.422;2024-02-26T11:20:52;7.17;;;6.87;;
68942;SDS011;60852;52.190;4.422;2024-02-26T11:23:22;7.47;;;7.18;;
68942;SDS011;60852;52.190;4.422;2024-02-26T11:25:48;6.81;;;6.58;;
68942;SDS011;60852;52.190;4.422;2024-02-26T11:28:19;6.62;;;6.50;;
68942;SDS011;60852;52.190;4.422;2024-02-26T11:30:49;6.30;;;6.05;;
68942;SDS011;60852;52.190;4.422;2024-02-26T11:33:16;6.26;;;6.01;;
68942;SDS011;60852;52.190;4.422;2024-02-26T11:35:42;6.07;;;5.80;;
68942;SDS011;60852;52.190;4.422;2024-02-26T11:38:16;6.02;;;5.81;;
68942;SDS011;60852;52.190;4.422;2024-02-26T11:40:46;5.87;;;5.72;;
68942;SDS011;60852;52.190;4.422;2024-02-26T11:43:12;5.61;;;5.43;;
68942;SDS011;60852;52.190;4.422;2024-02-26T11:45:47;5.69;;;5.57;;
68942;SDS011;60852;52.190;4.422;2024-02-26T11:48:24;5.51;;;5.32;;
68942;SDS011;60852;52.190;4.422;2024-02-26T11:50:54;5.48;;;5.27;;
68942;SDS011;60852;52.190;4.422;2024-02-26T11:53:24;5.94;;;5.67;;
68942;SDS011;60852;52.190;4.422;2024-02-26T11:56:12;5.73;;;5.49;;
68942;SDS011;60852;52.190;4.422;2024-02-26T11:58:41;5.68;;;5.49;;
68942;SDS011;60852;52.190;4.422;2024-02-26T12:01:52;5.37;;;5.28;;
68942;SDS011;60852;52.190;4.422;2024-02-26T12:04:17;5.26;;;5.26;;
68942;SDS011;60852;52.190;4.422;2024-02-26T12:06:50;5.35;;;5.35;;
68942;SDS011;60852;52.190;4.422;2024-02-26T12:09:37;5.20;;;5.11;;
68942;SDS011;60852;52.190;4.422;2024-02-26T12:12:04;5.24;;;5.22;;
68942;SDS011;60852;52.190;4.422;2024-02-26T12:14:37;5.06;;;5.04;;
68942;SDS011;60852;52.190;4.422;2024-02-26T12:17:20;4.86;;;4.86;;
68942;SDS011;60852;52.190;4.422;2024-02-26T12:19:48;4.88;;;4.88;;
68942;SDS011;60852;52.190;4.422;2024-02-26T12:22:14;4.92;;;4.92;;
68942;SDS011;60852;52.190;4.422;2024-02-26T12:24:40;4.80;;;4.75;;
68942;SDS011;60852;52.190;4.422;2024-02-26T12:27:06;4.97;;;4.97;;
68942;SDS011;60852;52.190;4.422;2024-02-26T12:29:31;4.80;;;4.72;;
68942;SDS011;60852;52.190;4.422;2024-02-26T12:31:57;4.92;;;4.82;;
68942;SDS011;60852;52.190;4.422;2024-02-26T12:34:23;4.60;;;4.57;;
68942;SDS011;60852;52.190;4.422;2024-02-26T12:36:49;4.52;;;4.49;;
68942;SDS011;60852;52.190;4.422;2024-02-26T12:39:15;4.67;;;4.65;;
68942;SDS011;60852;52.190;4.422;2024-02-26T12:41:40;4.58;;;4.57;;
68942;SDS011;60852;52.190;4.422;2024-02-26T12:44:07;4.74;;;4.70;;
68942;SDS011;60852;52.190;4.422;2024-02-26T12:46:33;4.95;;;4.88;;
68942;SDS011;60852;52.190;4.422;2024-02-26T12:48:58;5.24;;;5.12;;
68942;SDS011;60852;52.190;4.422;2024-02-26T12:51:25;4.60;;;4.54;;
68942;SDS011;60852;52.190;4.422;2024-02-26T12:53:52;5.13;;;5.09;;
68942;SDS011;60852;52.190;4.422;2024-02-26T12:56:20;5.08;;;5.05;;
68942;SDS011;60852;52.190;4.422;2024-02-26T12:58:47;4.77;;;4.77;;
68942;SDS011;60852;52.190;4.422;2024-02-26T13:01:16;4.77;;;4.76;;
68942;SDS011;60852;52.190;4.422;2024-02-26T13:03:45;4.98;;;4.98;;
68942;SDS011;60852;52.190;4.422;2024-02-26T13:06:11;4.86;;;4.86;;
68942;SDS011;60852;52.190;4.422;2024-02-26T13:08:37;4.94;;;4.94;;
68942;SDS011;60852;52.190;4.422;2024-02-26T13:11:03;4.93;;;4.93;;
68942;SDS011;60852;52.190;4.422;2024-02-26T13:13:29;4.80;;;4.80;;
68942;SDS011;60852;52.190;4.422;2024-02-26T13:16:01;4.86;;;4.85;;
68942;SDS011;60852;52.190;4.422;2024-02-26T13:18:31;5.12;;;5.12;;
68942;SDS011;60852;52.190;4.422;2024-02-26T13:21:06;4.94;;;4.94;;
68942;SDS011;60852;52.190;4.422;2024-02-26T13:23:36;4.85;;;4.85;;
68942;SDS011;60852;52.190;4.422;2024-02-26T13:26:03;4.84;;;4.84;;
68942;SDS011;60852;52.190;4.422;2024-02-26T13:28:28;4.66;;;4.66;;
68942;SDS011;60852;52.190;4.422;2024-02-26T13:30:54;4.37;;;4.37;;
68942;SDS011;60852;52.190;4.422;2024-02-26T13:33:26;4.53;;;4.52;;
68942;SDS011;60852;52.190;4.422;2024-02-26T13:35:57;4.39;;;4.34;;
68942;SDS011;60852;52.190;4.422;2024-02-26T13:38:23;4.20;;;4.20;;
68942;SDS011;60852;52.190;4.422;2024-02-26T13:40:50;4.31;;;4.31;;
68942;SDS011;60852;52.190;4.422;2024-02-26T13:43:16;4.19;;;4.19;;
68942;SDS011;60852;52.190;4.422;2024-02-26T13:45:42;4.34;;;4.34;;
68942;SDS011;60852;52.190;4.422;2024-02-26T13:48:09;4.06;;;4.06;;
68942;SDS011;60852;52.190;4.422;2024-02-26T13:50:36;4.32;;;4.26;;
68942;SDS011;60852;52.190;4.422;2024-02-26T13:53:03;4.37;;;4.33;;
68942;SDS011;60852;52.190;4.422;2024-02-26T13:55:29;4.42;;;4.42;;
68942;SDS011;60852;52.190;4.422;2024-02-26T13:57:57;4.53;;;4.53;;
68942;SDS011;60852;52.190;4.422;2024-02-26T14:00:23;4.56;;;4.56;;
68942;SDS011;60852;52.190;4.422;2024-02-26T14:02:50;4.40;;;4.40;;
68942;SDS011;60852;52.190;4.422;2024-02-26T14:05:16;4.66;;;4.62;;
68942;SDS011;60852;52.190;4.422;2024-02-26T14:07:42;4.39;;;4.34;;
68942;SDS011;60852;52.190;4.422;2024-02-26T14:10:16;4.39;;;4.38;;
68942;SDS011;60852;52.190;4.422;2024-02-26T14:12:42;4.85;;;4.85;;
68942;SDS011;60852;52.190;4.422;2024-02-26T14:15:07;4.74;;;4.74;;
68942;SDS011;60852;52.190;4.422;2024-02-26T14:17:35;5.02;;;4.93;;
68942;SDS011;60852;52.190;4.422;2024-02-26T14:20:01;5.14;;;5.14;;
68942;SDS011;60852;52.190;4.422;2024-02-26T14:22:28;5.32;;;5.32;;
68942;SDS011;60852;52.190;4.422;2024-02-26T14:24:56;5.25;;;5.25;;
68942;SDS011;60852;52.190;4.422;2024-02-26T14:27:22;5.45;;;5.45;;
68942;SDS011;60852;52.190;4.422;2024-02-26T14:29:48;5.51;;;5.51;;